Aeroporto :
LOGIN :

Iscrizione | Disclaimer

   EN    FR    IT 

 










Sommario :    VFR   VFR Marginale   IFR   IFR Intensivo   IFR Molto Intensivo
Visibilità : 
Base nubi : 
>= 8 km
>= 3000ft
5 / 8 km
1000 / 3000 ft
1500m / 5 km
500 / 1000 ft
800 / 1500m
200 / 500 ft
< 800m
< 200 ft
Simboli :   Temporali  Nebbia  Neve Forte  Precipitazioni Forti  Vento > 20 kt
SIGMETs :   Varie  Temporali  Ghiacco  Turbolenza  Onda orograficha  Ceneri Vulcaniche






- Altitudine del aeroporto : 138 ft
- Codice IATA : BIO


LEBB - Bilbao

ULTIMO METAR :
  • 150230Z AUTO 22007KT 170V270 9999 BKN038 07/04 Q1000

METARs OBSOLETI :
  • 150200Z AUTO VRB03KT 9999 VCTS -SHRA BKN039/// BKN047/// ///CB 06/04 Q1000
  • 150130Z AUTO 22006KT 160V320 9999 -RA FEW043 SCT050 06/04 Q1000
  • 150100Z AUTO 21003KT 120V290 9999 FEW050/// ///CB 06/03 Q1000
  • 150030Z AUTO 09004KT 030V140 9999 SCT046 SCT070 06/04 Q1000
  • 150000Z AUTO 08003KT 050V110 9999 FEW056 04/03 Q1001

TAF AMD TAF LEBB
Valido dal 15 a 01 ore il 16 a 00 ore UTC


150102Z 1501/1524 26009KT 9999 SCT025 BKN045 TX10/1514Z TN02/1506Z
TEMPO 1501/1515 32015G25KT 3000 RA SHRA SCT025TCU
PROB40
TEMPO 1503/1510 26025G38KT
BECMG 1508/1510 34012KT
PROB40
TEMPO 1504/1515 1500 SHRAGR TSRA BKN010 BKN020CB
PROB30
TEMPO 1515/1524 SHRA TSGR SCT020CB



MetMap, La meteo Aeronautica in un colpo d'occhio ! - Copyright ORBIFLY Dicembre 2007 - Disclaimer

ORBIFLY MET'MAP TEAM :

Programmazione e sviluppo : Alexandra Zaïnal
Concezione e sviluppo : Baudouin d'Aumeries
Co-Programmazione e sviluppo : Marc-Olivier Méhu
Supporto tecnico e logistico : Manuel Goepfert
Aiuto per la traduzione : Arnaldo La Scala

Contatto : metmap@orbifly.com




FONTI E CREDITI :

   NOAA